createdAt,value
2022-10-02T00:02:00.605Z,4.50
2022-10-02T00:05:46.010Z,4.00
2022-10-02T00:09:43.073Z,4.80
2022-10-02T00:13:42.740Z,3.80
2022-10-02T00:17:36.480Z,3.90
2022-10-02T00:21:17.428Z,3.70
2022-10-02T00:25:12.421Z,4.10
2022-10-02T00:32:59.100Z,4.10
2022-10-02T00:35:58.970Z,3.60
2022-10-02T00:41:14.688Z,3.60
2022-10-02T01:00:32.593Z,3.80
2022-10-02T01:04:45.652Z,3.70
2022-10-02T01:11:32.929Z,3.50
2022-10-02T01:15:53.021Z,3.70
2022-10-02T01:19:02.115Z,4.20
2022-10-02T01:31:46.848Z,3.30
2022-10-02T01:34:09.303Z,3.70
2022-10-02T01:41:17.946Z,4.00
2022-10-02T01:44:44.354Z,3.50
2022-10-02T01:48:41.914Z,4.20
2022-10-02T01:59:50.733Z,3.90
2022-10-02T02:03:37.751Z,3.80
2022-10-02T02:22:09.336Z,3.00
2022-10-02T02:32:03.943Z,3.30
2022-10-02T02:38:30.384Z,2.70
2022-10-02T02:58:01.429Z,2.10
2022-10-02T03:04:54.941Z,2.70
2022-10-02T03:08:08.067Z,2.70
2022-10-02T03:11:20.453Z,2.40
2022-10-02T03:15:11.485Z,2.20
2022-10-02T03:18:19.980Z,2.10
2022-10-02T03:22:12.700Z,1.80
2022-10-02T03:25:31.395Z,2.00
2022-10-02T03:29:21.824Z,2.40
2022-10-02T03:32:31.928Z,1.80
2022-10-02T03:40:08.705Z,1.90
2022-10-02T03:44:15.700Z,2.00
2022-10-02T03:47:41.815Z,1.50
2022-10-02T03:51:30.630Z,2.30
2022-10-02T03:54:54.373Z,1.70
2022-10-02T03:58:21.557Z,2.20
2022-10-02T04:02:11.162Z,2.00
2022-10-02T04:31:20.100Z,1.90
2022-10-02T05:08:39.513Z,1.90
2022-10-02T05:13:12.761Z,2.10
2022-10-02T05:20:38.770Z,2.20
2022-10-02T05:24:12.382Z,2.40
2022-10-02T05:27:32.006Z,3.40
2022-10-02T05:30:21.242Z,2.50
2022-10-02T05:33:08.071Z,3.00
2022-10-02T05:36:29.096Z,2.40
2022-10-02T05:39:17.369Z,2.60
2022-10-02T05:42:29.540Z,3.70
2022-10-02T05:45:19.663Z,2.90
2022-10-02T05:47:51.048Z,3.60
2022-10-02T05:50:30.894Z,3.50
2022-10-02T05:53:43.944Z,2.90
2022-10-02T05:56:23.897Z,4.20
2022-10-02T05:59:08.813Z,3.50
2022-10-02T06:01:46.392Z,3.20
2022-10-02T06:04:41.640Z,4.00
2022-10-02T06:07:20.259Z,3.20
2022-10-02T06:10:25.814Z,2.80
2022-10-02T06:13:08.833Z,3.00
2022-10-02T06:15:53.474Z,3.00
2022-10-02T06:18:34.047Z,3.80
2022-10-02T06:21:42.822Z,3.40
2022-10-02T06:24:26.233Z,3.40
2022-10-02T06:27:50.029Z,4.30
2022-10-02T06:30:26.026Z,3.60
2022-10-02T06:33:03.006Z,4.60
2022-10-02T06:36:37.902Z,4.20
2022-10-02T06:39:56.647Z,4.20
2022-10-02T06:43:06.543Z,4.70
2022-10-02T06:46:18.112Z,3.50
2022-10-02T06:49:19.761Z,3.20
2022-10-02T06:52:44.619Z,5.00
2022-10-02T06:55:51.722Z,4.80
2022-10-02T06:58:35.486Z,3.60
2022-10-02T07:01:57.059Z,3.30
2022-10-02T07:05:03.091Z,4.60
2022-10-02T07:08:12.174Z,3.00
2022-10-02T07:11:20.914Z,4.50
2022-10-02T07:14:10.831Z,3.80
2022-10-02T07:17:22.343Z,3.50
2022-10-02T07:20:30.402Z,3.40
2022-10-02T07:23:27.496Z,5.50
2022-10-02T07:26:11.534Z,4.70
2022-10-02T07:29:01.069Z,4.10
2022-10-02T07:32:11.102Z,3.30
2022-10-02T07:35:16.229Z,3.40
2022-10-02T07:38:57.754Z,4.00
2022-10-02T07:42:01.740Z,3.80
2022-10-02T07:45:21.770Z,4.70
2022-10-02T07:48:14.733Z,4.30
2022-10-02T07:51:47.356Z,4.30
2022-10-02T07:54:49.414Z,3.30
2022-10-02T07:57:48.356Z,3.80
2022-10-02T08:00:24.681Z,3.80
2022-10-02T08:03:09.754Z,4.30
2022-10-02T08:05:58.605Z,4.90
2022-10-02T08:09:04.315Z,3.80
2022-10-02T08:12:36.105Z,5.00
2022-10-02T08:15:51.031Z,4.90
2022-10-02T08:23:34.029Z,4.60
2022-10-02T08:27:16.075Z,3.00
2022-10-02T08:30:06.676Z,3.40
2022-10-02T08:32:51.949Z,4.00
2022-10-02T08:36:13.149Z,3.40
2022-10-02T08:39:16.252Z,4.00
2022-10-02T08:42:20.417Z,3.90
2022-10-02T08:45:19.988Z,3.10
2022-10-02T08:48:58.586Z,3.70
2022-10-02T08:52:29.879Z,2.90
2022-10-02T09:02:02.309Z,3.60
2022-10-02T09:05:20.884Z,3.20
2022-10-02T09:08:18.106Z,4.20
2022-10-02T09:11:17.642Z,3.60
2022-10-02T09:14:31.424Z,3.30
2022-10-02T09:18:24.593Z,3.50
2022-10-02T09:21:47.854Z,2.60
2022-10-02T09:25:16.995Z,2.80
2022-10-02T09:28:24.108Z,3.30
2022-10-02T09:31:32.378Z,3.50
2022-10-02T09:35:08.558Z,7.40
2022-10-02T09:38:12.479Z,5.40
2022-10-02T09:41:27.883Z,4.20
2022-10-02T10:01:04.997Z,3.00
2022-10-02T10:03:49.453Z,5.20
2022-10-02T10:07:07.495Z,7.00
2022-10-02T10:10:21.124Z,4.00
2022-10-02T10:13:54.565Z,4.10
2022-10-02T10:17:32.489Z,2.80
2022-10-02T10:20:54.546Z,2.90
2022-10-02T10:23:54.304Z,3.60
2022-10-02T10:27:07.964Z,3.60
2022-10-02T10:30:34.675Z,3.80
2022-10-02T10:33:20.956Z,5.20
2022-10-02T10:36:49.218Z,3.90
2022-10-02T10:40:16.476Z,4.00
2022-10-02T10:43:50.048Z,3.60
2022-10-02T10:47:18.604Z,3.50
2022-10-02T10:50:36.053Z,2.60
2022-10-02T10:53:18.615Z,3.30
2022-10-02T10:56:21.647Z,3.30
2022-10-02T10:59:06.834Z,2.80
2022-10-02T11:02:26.669Z,3.30
2022-10-02T11:06:01.608Z,2.90
2022-10-02T11:08:54.060Z,3.80
2022-10-02T11:11:53.369Z,3.00
2022-10-02T11:15:06.704Z,3.10
2022-10-02T11:18:49.827Z,2.40
2022-10-02T11:22:26.287Z,2.90
2022-10-02T11:25:38.763Z,2.90
2022-10-02T11:29:15.242Z,3.00
2022-10-02T11:32:34.243Z,2.90
2022-10-02T11:35:36.629Z,3.20
2022-10-02T11:43:33.636Z,2.80
2022-10-02T11:46:35.109Z,3.10
2022-10-02T11:51:02.733Z,3.20
2022-10-02T11:54:53.054Z,3.50
2022-10-02T11:58:10.603Z,2.80
2022-10-02T12:04:28.139Z,2.30
2022-10-02T12:07:55.720Z,5.40
2022-10-02T12:10:51.016Z,2.70
2022-10-02T12:14:04.524Z,4.10
2022-10-02T12:17:05.356Z,4.00
2022-10-02T12:20:26.445Z,3.00
2022-10-02T12:23:39.859Z,3.30
2022-10-02T12:26:45.893Z,3.20
2022-10-02T12:29:54.122Z,3.70
2022-10-02T12:32:36.817Z,4.90
2022-10-02T12:35:30.900Z,3.80
2022-10-02T12:38:59.986Z,3.40
2022-10-02T12:45:13.862Z,4.00
2022-10-02T12:48:03.448Z,2.40
2022-10-02T12:54:34.355Z,7.20
2022-10-02T12:58:02.477Z,3.40
2022-10-02T13:01:35.051Z,5.10
2022-10-02T13:04:54.585Z,4.70
2022-10-02T13:08:31.848Z,4.50
2022-10-02T13:14:53.359Z,3.80
2022-10-02T13:18:21.243Z,3.30
2022-10-02T13:21:54.040Z,3.00
2022-10-02T13:25:06.157Z,3.50
2022-10-02T13:28:13.909Z,3.20
2022-10-02T13:31:37.225Z,3.30
2022-10-02T13:34:50.437Z,4.50
2022-10-02T13:37:46.878Z,35.40
2022-10-02T13:40:29.142Z,6.40
2022-10-02T13:43:47.427Z,5.10
2022-10-02T13:46:49.383Z,6.20
2022-10-02T13:50:17.351Z,8.60
2022-10-02T13:53:29.621Z,6.70
2022-10-02T13:56:45.396Z,5.80
2022-10-02T13:59:38.925Z,5.20
2022-10-02T14:03:02.459Z,4.20
2022-10-02T14:06:23.598Z,4.30
2022-10-02T14:09:44.671Z,4.50
2022-10-02T14:12:36.602Z,3.90
2022-10-02T14:15:51.889Z,6.20
2022-10-02T14:18:48.014Z,7.60
2022-10-02T14:21:28.224Z,5.30
2022-10-02T14:24:51.657Z,8.40
2022-10-02T14:28:14.425Z,7.20
2022-10-02T14:31:06.546Z,6.80
2022-10-02T14:33:41.226Z,5.40
2022-10-02T14:36:26.321Z,4.70
2022-10-02T14:39:39.460Z,5.20
2022-10-02T14:42:38.119Z,3.90
2022-10-02T14:45:26.214Z,4.90
2022-10-02T14:49:02.404Z,4.50
2022-10-02T14:51:54.820Z,6.00
2022-10-02T14:55:11.457Z,5.40
2022-10-02T14:58:23.594Z,3.40
2022-10-02T15:01:23.467Z,7.00
2022-10-02T15:04:23.980Z,4.00
2022-10-02T15:07:11.173Z,2.00
2022-10-02T15:10:02.471Z,2.20
2022-10-02T15:12:43.781Z,2.30
2022-10-02T15:15:31.754Z,2.30
2022-10-02T15:18:44.434Z,2.60
2022-10-02T15:21:13.427Z,2.80
2022-10-02T15:23:50.602Z,3.10
2022-10-02T15:27:12.137Z,4.10
2022-10-02T15:30:06.286Z,4.70
2022-10-02T15:32:55.762Z,3.30
2022-10-02T15:35:47.210Z,3.30
2022-10-02T15:38:42.171Z,6.40
2022-10-02T15:41:54.173Z,5.70
2022-10-02T15:45:04.609Z,4.70
2022-10-02T15:48:39.151Z,7.10
2022-10-02T15:51:31.004Z,6.70
2022-10-02T15:54:25.256Z,5.50
2022-10-02T15:57:26.620Z,3.80
2022-10-02T16:00:20.828Z,4.10
2022-10-02T16:03:12.439Z,3.90
2022-10-02T16:06:07.364Z,4.30
2022-10-02T16:08:57.539Z,4.50
2022-10-02T16:11:49.426Z,4.40
2022-10-02T16:14:48.771Z,4.60
2022-10-02T16:17:52.635Z,5.10
2022-10-02T16:20:52.703Z,3.90
2022-10-02T16:24:06.366Z,3.40
2022-10-02T16:27:02.410Z,3.50
2022-10-02T16:30:13.799Z,3.90
2022-10-02T16:36:26.165Z,5.50
2022-10-02T16:39:35.483Z,10.80
2022-10-02T16:43:05.902Z,4.80
2022-10-02T16:46:05.275Z,5.10
2022-10-02T16:49:03.161Z,5.30
2022-10-02T16:52:10.187Z,4.20
2022-10-02T16:55:02.398Z,5.40
2022-10-02T16:57:58.574Z,6.20
2022-10-02T17:00:59.453Z,7.50
2022-10-02T17:04:09.373Z,9.50
2022-10-02T17:06:53.785Z,11.50
2022-10-02T17:09:44.485Z,13.80
2022-10-02T17:13:14.592Z,14.50
2022-10-02T17:16:58.962Z,13.70
2022-10-02T17:19:50.155Z,14.90
2022-10-02T17:23:16.073Z,11.90
2022-10-02T17:26:07.613Z,7.80
2022-10-02T17:28:49.071Z,7.30
2022-10-02T17:31:28.244Z,7.50
2022-10-02T17:34:15.304Z,6.80
2022-10-02T17:37:15.797Z,13.60
2022-10-02T17:39:59.072Z,12.10
2022-10-02T17:43:24.257Z,9.80
2022-10-02T17:46:35.102Z,10.20
2022-10-02T17:49:43.076Z,12.20
2022-10-02T17:52:48.582Z,11.70
2022-10-02T17:56:16.895Z,11.30
2022-10-02T17:59:34.639Z,9.60
2022-10-02T18:03:08.108Z,8.90
2022-10-02T18:06:01.943Z,7.80
2022-10-02T18:09:09.627Z,8.40
2022-10-02T18:12:51.642Z,7.90
2022-10-02T18:16:06.917Z,9.00
2022-10-02T18:19:36.792Z,8.90
2022-10-02T18:23:31.413Z,8.30
2022-10-02T18:27:11.971Z,8.40
2022-10-02T18:31:07.823Z,9.00
2022-10-02T18:34:32.906Z,8.60
2022-10-02T18:37:31.708Z,8.80
2022-10-02T18:40:39.119Z,9.00
2022-10-02T18:45:41.182Z,8.70
2022-10-02T18:47:41.804Z,9.20
2022-10-02T18:50:53.426Z,10.30
2022-10-02T18:57:58.944Z,8.30
2022-10-02T19:01:07.273Z,8.40
2022-10-02T19:04:43.123Z,8.50
2022-10-02T19:12:59.277Z,7.20
2022-10-02T19:16:39.235Z,6.60
2022-10-02T19:19:55.465Z,7.10
2022-10-02T19:23:03.523Z,7.90
2022-10-02T19:27:10.522Z,8.70
2022-10-02T19:31:09.757Z,9.30
2022-10-02T19:35:11.224Z,10.50
2022-10-02T19:37:36.171Z,8.20
2022-10-02T19:40:27.655Z,7.70
2022-10-02T19:43:36.602Z,8.00
2022-10-02T19:47:38.285Z,8.40
2022-10-02T19:50:34.072Z,11.40
2022-10-02T19:53:55.954Z,9.00
2022-10-02T19:57:10.602Z,12.90
2022-10-02T19:59:58.130Z,12.50
2022-10-02T20:05:29.740Z,9.40
2022-10-02T20:06:49.551Z,9.10
2022-10-02T20:10:05.005Z,7.50
2022-10-02T20:14:14.190Z,9.20
2022-10-02T20:17:36.593Z,9.40
2022-10-02T20:21:14.877Z,10.60
2022-10-02T20:25:11.279Z,8.70
2022-10-02T20:32:25.310Z,5.90
2022-10-02T20:36:01.390Z,6.90
2022-10-02T20:40:09.671Z,6.80
2022-10-02T20:44:04.057Z,5.90
2022-10-02T20:51:02.409Z,7.40
2022-10-02T20:54:39.034Z,7.10
2022-10-02T20:58:29.381Z,6.50
2022-10-02T21:02:41.781Z,6.40
2022-10-02T21:06:18.627Z,5.70
2022-10-02T21:25:02.370Z,7.10
2022-10-02T21:34:41.471Z,6.20
2022-10-02T21:37:36.639Z,7.20
2022-10-02T21:41:30.695Z,5.80
2022-10-02T21:48:51.988Z,6.80
2022-10-02T21:52:34.625Z,6.90
2022-10-02T22:16:31.233Z,5.50
2022-10-02T22:19:55.685Z,5.90
2022-10-02T22:27:19.599Z,4.80
2022-10-02T22:33:46.290Z,5.30
2022-10-02T22:36:39.967Z,5.00
2022-10-02T22:39:45.109Z,4.80
2022-10-02T22:43:07.514Z,5.50
2022-10-02T22:46:03.234Z,4.90
2022-10-02T22:49:12.842Z,5.10
2022-10-02T22:52:22.333Z,4.90
2022-10-02T22:55:27.007Z,5.10
2022-10-02T22:58:19.737Z,5.70
2022-10-02T23:01:34.540Z,5.30
2022-10-02T23:04:33.995Z,5.70
2022-10-02T23:07:42.808Z,6.60
2022-10-02T23:10:59.840Z,4.80
2022-10-02T23:13:53.376Z,4.90
2022-10-02T23:16:45.893Z,4.00
2022-10-02T23:19:56.150Z,4.20
2022-10-02T23:23:06.733Z,5.30
2022-10-02T23:25:54.858Z,5.10
2022-10-02T23:28:56.650Z,5.50
2022-10-02T23:32:06.557Z,4.90
2022-10-02T23:38:23.300Z,4.40
2022-10-02T23:41:31.970Z,4.10
2022-10-02T23:44:20.079Z,3.90
2022-10-02T23:47:28.743Z,3.90
2022-10-02T23:53:58.143Z,2.70
